Time;durP1;ratioP1;P1;durP2;ratioP2;P2;SDS_P1;SDS_P2;PMS_P1;PMS_P2;Temp;Humidity;BMP_temperature;BMP_pressure;BME280_temperature;BME280_humidity;BME280_pressure;Samples;Min_cycle;Max_cycle;Signal;HPM_P1;HPM_P2
2020/12/29 00:01:50;;;;;;;64.57;29.40;;;;;;;0.54;88.45;99093.95;124490;1146;23803;-67
2020/12/29 00:04:22;;;;;;;48.90;24.70;;;;;;;0.53;88.50;99113.73;124346;1145;22644;-67
2020/12/29 00:06:54;;;;;;;70.57;31.40;;;;;;;0.52;87.85;99103.22;124510;1146;22760;-67
2020/12/29 00:09:22;;;;;;;52.00;24.13;;;;;;;0.51;88.47;99107.75;124338;1146;23560;-67
2020/12/29 00:11:50;;;;;;;46.27;22.03;;;;;;;0.51;87.93;99104.24;124426;1146;23146;-67
2020/12/29 00:14:17;;;;;;;55.67;26.30;;;;;;;0.52;88.01;99105.90;124279;1146;22691;-67
2020/12/29 00:16:45;;;;;;;54.40;26.47;;;;;;;0.50;88.62;99106.09;124538;1146;22707;-67
2020/12/29 00:19:18;;;;;;;48.60;22.50;;;;;;;0.49;87.95;99090.22;124225;1146;22687;-67
2020/12/29 00:21:46;;;;;;;51.93;23.57;;;;;;;0.49;88.73;99083.00;124512;1146;22681;-67
2020/12/29 00:24:13;;;;;;;45.00;22.55;;;;;;;0.47;89.43;99090.42;124333;1146;22779;-67
2020/12/29 00:27:01;;;;;;;40.90;21.60;;;;;;;0.51;88.25;99101.56;124479;1146;22680;-67
2020/12/29 00:29:29;;;;;;;71.37;30.67;;;;;;;0.51;89.15;99098.88;124345;1146;22717;-68
2020/12/29 00:32:04;;;;;;;45.07;22.03;;;;;;;0.51;88.04;99094.34;124417;1145;22675;-67
2020/12/29 00:34:34;;;;;;;44.70;21.13;;;;;;;0.51;88.59;99105.07;124303;1146;24854;-68
2020/12/29 00:37:01;;;;;;;52.43;24.87;;;;;;;0.51;88.64;99098.88;121203;1146;26341;-64
2020/12/29 00:39:29;;;;;;;59.33;28.77;;;;;;;0.52;88.37;99100.53;124414;1146;22776;-64
2020/12/29 00:41:56;;;;;;;58.10;26.97;;;;;;;0.52;88.43;99104.05;124546;1146;23244;-65
2020/12/29 00:44:24;;;;;;;42.10;20.80;;;;;;;0.57;88.40;99101.59;124447;1146;22679;-65
2020/12/29 00:46:52;;;;;;;46.40;22.87;;;;;;;0.60;89.18;99111.05;124349;1146;22703;-65
2020/12/29 00:49:20;;;;;;;70.65;31.70;;;;;;;0.61;89.12;99126.94;124423;1146;22689;-65
2020/12/29 00:51:48;;;;;;;47.40;21.60;;;;;;;0.63;89.31;99126.73;124255;1146;22655;-65
2020/12/29 00:54:17;;;;;;;41.20;21.47;;;;;;;0.62;89.10;99125.91;124443;1145;22693;-65
2020/12/29 00:56:47;;;;;;;50.77;24.10;;;;;;;0.65;88.36;99113.95;124305;1146;22748;-65
2020/12/29 00:59:15;;;;;;;53.80;24.95;;;;;;;0.62;88.33;99103.64;124519;1146;22717;-65
2020/12/29 01:01:43;;;;;;;43.30;21.47;;;;;;;0.60;88.91;99086.92;124331;1146;23543;-65
2020/12/29 01:04:34;;;;;;;50.45;25.35;;;;;;;0.60;89.00;99103.01;124291;1146;22752;-65
2020/12/29 01:07:03;;;;;;;45.30;22.43;;;;;;;0.59;88.39;99098.67;124295;1147;23497;-65
2020/12/29 01:09:31;;;;;;;45.75;23.40;;;;;;;0.59;88.20;99085.27;124421;1146;22682;-65
2020/12/29 01:11:59;;;;;;;44.27;22.00;;;;;;;0.59;88.35;99075.38;124287;1145;22696;-65
2020/12/29 01:14:26;;;;;;;48.70;22.75;;;;;;;0.61;87.99;99091.26;124549;1146;22661;-66
2020/12/29 01:17:00;;;;;;;44.13;21.83;;;;;;;0.62;89.48;99088.38;124350;1146;22747;-66
2020/12/29 01:19:27;;;;;;;48.85;24.30;;;;;;;0.63;88.79;99081.98;124486;1146;23854;-66
2020/12/29 01:21:54;;;;;;;46.75;25.10;;;;;;;0.65;88.85;99085.30;124324;1146;22714;-66
2020/12/29 01:24:22;;;;;;;43.27;23.23;;;;;;;0.65;89.17;99081.78;124498;1146;22665;-66
2020/12/29 01:26:49;;;;;;;54.40;24.85;;;;;;;0.64;88.28;99094.36;124397;1146;23822;-66
2020/12/29 01:29:16;;;;;;;51.90;25.10;;;;;;;0.64;89.03;99090.86;124443;1146;22718;-66
2020/12/29 01:31:44;;;;;;;47.00;21.93;;;;;;;0.64;89.00;99085.50;124307;1146;22727;-66
2020/12/29 01:34:12;;;;;;;46.83;23.20;;;;;;;0.65;89.08;99092.51;124464;1146;23523;-66
2020/12/29 01:36:39;;;;;;;44.23;20.83;;;;;;;0.67;88.30;99082.41;121804;1146;23059;-67
2020/12/29 01:39:07;;;;;;;44.20;21.57;;;;;;;0.68;88.35;99084.89;119883;1147;22930;-68
2020/12/29 01:41:35;;;;;;;50.13;24.37;;;;;;;0.70;88.57;99082.01;124463;1146;22807;-69
2020/12/29 01:44:16;;;;;;;53.70;26.33;;;;;;;0.71;88.39;99062.21;124397;1146;23561;-69
2020/12/29 01:46:49;;;;;;;50.83;24.93;;;;;;;0.71;88.94;99048.81;124470;1146;23886;-68
2020/12/29 01:49:17;;;;;;;51.57;27.27;;;;;;;0.69;88.37;99046.33;124316;1145;22709;-68
2020/12/29 01:51:45;;;;;;;49.30;24.93;;;;;;;0.67;88.44;99042.20;124421;1146;23596;-69
2020/12/29 01:54:12;;;;;;;46.57;23.57;;;;;;;0.68;88.10;99041.17;124319;1146;22669;-69
2020/12/29 01:56:41;;;;;;;46.07;22.37;;;;;;;0.67;88.15;99039.52;124529;1146;22741;-68
2020/12/29 01:59:11;;;;;;;44.57;23.17;;;;;;;0.66;87.79;99037.87;124378;1146;22719;-69
2020/12/29 02:01:40;;;;;;;43.65;23.75;;;;;;;0.66;88.40;99032.50;124485;1146;22704;-69
2020/12/29 02:04:08;;;;;;;47.43;23.77;;;;;;;0.67;88.78;99018.90;124359;1146;22698;-69
2020/12/29 02:06:37;;;;;;;44.37;22.13;;;;;;;0.69;89.05;99016.02;124479;1146;23131;-69
2020/12/29 02:09:05;;;;;;;42.97;20.60;;;;;;;0.69;88.51;99005.29;124309;1145;22700;-69
2020/12/29 02:11:32;;;;;;;38.90;21.60;;;;;;;0.68;88.22;99009.00;124491;1146;22645;-69
2020/12/29 02:14:00;;;;;;;39.50;20.20;;;;;;;0.66;88.87;99019.10;124332;1146;22739;-69
2020/12/29 02:16:28;;;;;;;47.17;24.43;;;;;;;0.64;88.98;99013.12;124528;1146;22737;-66
2020/12/29 02:18:55;;;;;;;37.13;20.33;;;;;;;0.64;89.01;99007.75;124401;1146;22732;-66
2020/12/29 02:21:22;;;;;;;44.57;23.27;;;;;;;0.62;89.29;99018.68;124496;1146;22679;-66
2020/12/29 02:23:50;;;;;;;35.60;19.60;;;;;;;0.63;87.85;99035.59;124331;1146;22720;-66
2020/12/29 02:26:33;;;;;;;35.25;19.00;;;;;;;0.65;88.77;99034.36;124464;1146;23157;-66
2020/12/29 02:29:01;;;;;;;33.25;17.80;;;;;;;0.67;89.08;99034.16;124348;1146;23740;-66
2020/12/29 02:31:28;;;;;;;33.00;17.67;;;;;;;0.70;88.07;99041.80;124487;1146;22668;-66
2020/12/29 02:33:56;;;;;;;41.57;20.93;;;;;;;0.71;88.34;99030.04;124405;1146;22730;-65
2020/12/29 02:36:24;;;;;;;34.27;18.13;;;;;;;0.72;88.90;99038.91;124482;1146;23463;-66
2020/12/29 02:38:51;;;;;;;33.13;18.50;;;;;;;0.73;88.45;99036.00;124569;1146;22708;-66
2020/12/29 02:41:18;;;;;;;35.03;19.70;;;;;;;0.76;88.79;99034.77;124330;1146;22672;-65
2020/12/29 02:43:46;;;;;;;35.90;18.85;;;;;;;0.78;88.93;99032.70;124401;1146;22736;-66
2020/12/29 02:46:14;;;;;;;36.50;20.30;;;;;;;0.79;88.74;99037.03;122180;1148;22917;-65
2020/12/29 02:48:42;;;;;;;30.45;16.80;;;;;;;0.77;87.96;99017.64;124458;1146;22677;-66
2020/12/29 02:51:16;;;;;;;31.35;16.25;;;;;;;0.77;88.16;99013.11;124308;1146;22688;-66
2020/12/29 02:53:43;;;;;;;33.17;16.33;;;;;;;0.75;88.81;99008.98;124481;1146;22693;-66
2020/12/29 02:56:11;;;;;;;31.15;18.20;;;;;;;0.75;88.60;99003.62;124323;1146;22707;-66
2020/12/29 02:58:38;;;;;;;32.20;16.37;;;;;;;0.74;88.71;99005.47;124525;1146;22776;-66
2020/12/29 03:01:06;;;;;;;34.00;17.90;;;;;;;0.74;88.32;98984.02;124387;1146;22702;-66
2020/12/29 03:03:34;;;;;;;32.35;16.60;;;;;;;0.75;88.89;98995.58;124480;1146;22679;-66
2020/12/29 03:06:01;;;;;;;29.67;15.97;;;;;;;0.77;88.07;98996.20;124362;1146;22843;-66
2020/12/29 03:08:29;;;;;;;30.50;17.40;;;;;;;0.76;89.16;99011.45;124453;1146;22690;-66
2020/12/29 03:10:56;;;;;;;32.60;17.60;;;;;;;0.78;88.22;98997.84;124270;1146;22666;-65
2020/12/29 03:13:24;;;;;;;29.20;16.05;;;;;;;0.79;88.68;99008.37;124536;1146;22676;-66
2020/12/29 03:15:51;;;;;;;31.37;17.70;;;;;;;0.79;88.09;98994.13;124353;1146;22745;-66
2020/12/29 03:18:19;;;;;;;32.45;18.05;;;;;;;0.77;88.04;99004.23;124381;1146;22699;-66
2020/12/29 03:20:46;;;;;;;37.30;18.60;;;;;;;0.77;88.16;98988.16;124282;1146;23293;-66
2020/12/29 03:23:13;;;;;;;31.40;17.03;;;;;;;0.78;87.66;98987.13;124555;1145;22677;-66
2020/12/29 03:25:41;;;;;;;32.40;17.13;;;;;;;0.76;89.05;98989.18;124531;1146;23806;-66
2020/12/29 03:28:08;;;;;;;33.40;18.83;;;;;;;0.74;88.58;98975.16;124389;1146;22675;-66
2020/12/29 03:30:35;;;;;;;31.53;17.83;;;;;;;0.73;89.00;98954.73;124503;1146;22684;-66
2020/12/29 03:33:03;;;;;;;32.97;17.73;;;;;;;0.74;88.84;98975.16;124332;1146;22663;-66
2020/12/29 03:35:30;;;;;;;36.07;17.87;;;;;;;0.73;88.64;98970.83;124459;1146;22803;-66
2020/12/29 03:37:58;;;;;;;31.63;16.87;;;;;;;0.73;88.94;98968.97;124408;1146;23648;-66
2020/12/29 03:40:25;;;;;;;36.10;18.60;;;;;;;0.72;87.85;98955.80;124516;1146;22732;-66
2020/12/29 03:42:52;;;;;;;29.40;17.30;;;;;;;0.74;88.98;98956.39;124389;1146;22679;-66
2020/12/29 03:45:20;;;;;;;35.30;19.25;;;;;;;0.76;88.99;98978.45;124515;1146;22768;-66
2020/12/29 03:47:48;;;;;;;38.10;19.00;;;;;;;0.73;88.52;98992.27;124254;1146;22670;-66
2020/12/29 03:50:15;;;;;;;35.45;19.95;;;;;;;0.70;89.12;99002.41;124460;1146;23676;-66
2020/12/29 03:52:42;;;;;;;37.05;20.15;;;;;;;0.69;87.83;98994.56;124347;1146;22681;-66
2020/12/29 03:55:10;;;;;;;38.75;20.75;;;;;;;0.71;88.84;98989.83;124555;1146;23492;-66
2020/12/29 03:57:38;;;;;;;39.53;18.83;;;;;;;0.71;88.53;98984.47;124380;1146;22713;-66
2020/12/29 04:00:06;;;;;;;33.87;18.13;;;;;;;0.74;89.10;98967.94;124388;1146;26707;-66
2020/12/29 04:02:38;;;;;;;33.30;17.60;;;;;;;0.73;88.34;98960.92;124358;1146;22705;-66
2020/12/29 04:05:05;;;;;;;30.37;16.47;;;;;;;0.74;88.33;98965.26;124518;1146;23337;-66
2020/12/29 04:07:33;;;;;;;27.37;15.30;;;;;;;0.76;88.94;98968.56;124407;1146;22680;-66
2020/12/29 04:10:01;;;;;;;30.47;17.33;;;;;;;0.75;89.06;98956.18;124497;1146;22804;-66
2020/12/29 04:12:28;;;;;;;27.57;15.03;;;;;;;0.77;88.36;98958.66;124495;1146;23306;-66
2020/12/29 04:14:56;;;;;;;31.20;17.35;;;;;;;0.73;88.01;98939.47;124383;1146;22689;-66
2020/12/29 04:17:23;;;;;;;27.60;17.70;;;;;;;0.72;89.11;98950.44;124410;1145;22760;-68
2020/12/29 04:19:51;;;;;;;33.55;19.00;;;;;;;0.70;88.38;98945.28;124391;1146;22824;-68
2020/12/29 04:22:18;;;;;;;29.10;17.15;;;;;;;0.70;89.14;98948.79;124465;1146;22683;-68
2020/12/29 04:24:47;;;;;;;28.73;17.37;;;;;;;0.67;88.40;98943.02;124360;1146;22668;-68
2020/12/29 04:27:14;;;;;;;33.00;17.85;;;;;;;0.66;89.03;98949.40;124523;1146;22682;-68
2020/12/29 04:29:41;;;;;;;29.93;16.00;;;;;;;0.64;88.65;98954.97;124358;1146;22657;-68
2020/12/29 04:32:10;;;;;;;29.65;17.35;;;;;;;0.65;89.62;98950.44;124489;1146;22668;-68
2020/12/29 04:34:38;;;;;;;30.70;17.27;;;;;;;0.64;89.08;98965.69;124283;1145;22663;-69
2020/12/29 04:37:07;;;;;;;29.57;17.77;;;;;;;0.64;89.12;98967.55;124410;1146;22704;-68
2020/12/29 04:39:35;;;;;;;27.50;17.37;;;;;;;0.65;88.03;98969.20;124362;1146;23309;-68
2020/12/29 04:42:04;;;;;;;28.60;16.40;;;;;;;0.66;88.49;98952.08;124403;1146;23484;-68
2020/12/29 04:44:31;;;;;;;45.55;24.50;;;;;;;0.67;89.51;98957.23;124305;1146;22653;-69
2020/12/29 04:46:59;;;;;;;27.37;16.40;;;;;;;0.68;89.21;98955.38;124425;1146;22664;-68
2020/12/29 04:49:27;;;;;;;30.10;18.50;;;;;;;0.66;89.17;98947.55;124382;1146;22713;-68
2020/12/29 04:51:57;;;;;;;30.27;18.77;;;;;;;0.63;88.74;98936.41;124499;1146;22693;-68
2020/12/29 04:54:28;;;;;;;30.67;17.33;;;;;;;0.61;88.45;98923.21;124235;1145;23736;-68
2020/12/29 04:56:56;;;;;;;29.30;18.97;;;;;;;0.59;89.00;98927.95;124469;1145;22750;-65
2020/12/29 04:59:23;;;;;;;29.00;18.73;;;;;;;0.57;88.68;98932.72;124454;1146;23263;-66
2020/12/29 05:01:51;;;;;;;29.53;17.40;;;;;;;0.58;88.48;98949.59;124255;1146;22739;-66
2020/12/29 05:04:18;;;;;;;32.37;16.73;;;;;;;0.56;88.93;98957.87;124567;1146;22655;-66
2020/12/29 05:06:46;;;;;;;38.60;19.27;;;;;;;0.54;88.49;98959.11;124312;1146;22699;-65
2020/12/29 05:09:13;;;;;;;29.57;16.60;;;;;;;0.54;89.27;98951.89;124401;1146;23484;-66
2020/12/29 05:11:42;;;;;;;27.47;16.23;;;;;;;0.54;89.52;98957.25;124369;1146;22902;-65
2020/12/29 05:14:10;;;;;;;29.27;15.57;;;;;;;0.54;88.73;98951.07;124477;1146;22666;-66
2020/12/29 05:16:38;;;;;;;37.40;20.80;;;;;;;0.56;89.71;98940.97;124319;1146;22792;-66
2020/12/29 05:19:10;;;;;;;31.53;17.10;;;;;;;0.56;88.43;98944.47;124412;1146;22826;-65
2020/12/29 05:21:38;;;;;;;33.67;17.00;;;;;;;0.57;88.97;98961.38;124318;1146;23681;-65
2020/12/29 05:24:23;;;;;;;28.30;16.00;;;;;;;0.58;88.84;98960.32;124516;1146;22673;-65
2020/12/29 05:26:56;;;;;;;34.23;17.97;;;;;;;0.59;89.28;98970.02;121242;1146;22931;-66
2020/12/29 05:29:24;;;;;;;27.80;15.33;;;;;;;0.60;89.35;98968.98;124550;1146;22663;-66
2020/12/29 05:31:52;;;;;;;46.45;22.60;;;;;;;0.61;89.18;98960.73;124365;1146;23491;-66
2020/12/29 05:34:29;;;;;;;43.53;20.63;;;;;;;0.61;88.87;98951.88;124530;1146;23268;-65
2020/12/29 05:36:57;;;;;;;47.95;24.23;;;;;;;0.58;88.83;98974.55;124303;1146;23640;-66
2020/12/29 05:39:26;;;;;;;31.03;17.00;;;;;;;0.58;89.61;98979.09;124474;1146;22859;-66
2020/12/29 05:41:55;;;;;;;39.55;21.25;;;;;;;0.55;89.53;98969.63;124328;1146;22682;-66
2020/12/29 05:44:27;;;;;;;41.25;20.45;;;;;;;0.54;88.80;98967.97;124433;1146;23584;-66
2020/12/29 05:46:55;;;;;;;33.20;18.87;;;;;;;0.54;89.57;98953.75;124370;1146;22717;-65
2020/12/29 05:49:23;;;;;;;33.53;17.33;;;;;;;0.52;89.42;98959.31;124451;1146;22691;-66
2020/12/29 05:51:52;;;;;;;36.73;19.30;;;;;;;0.51;89.67;98952.30;124258;1146;24470;-65
2020/12/29 05:54:20;;;;;;;24.40;15.07;;;;;;;0.51;89.72;98943.44;124547;1146;23323;-66
2020/12/29 05:56:47;;;;;;;32.60;18.40;;;;;;;0.51;89.75;98946.12;124349;1146;23871;-66
2020/12/29 05:59:15;;;;;;;37.77;20.03;;;;;;;0.51;90.03;98959.52;124435;1146;22693;-65
2020/12/29 06:01:50;;;;;;;35.97;19.57;;;;;;;0.51;89.31;98954.98;124476;1146;22756;-66
2020/12/29 06:04:19;;;;;;;33.87;19.40;;;;;;;0.51;90.05;98943.44;124340;1146;22675;-66
2020/12/29 06:06:47;;;;;;;28.97;16.53;;;;;;;0.44;89.32;98940.75;124467;1146;23552;-65
2020/12/29 06:09:19;;;;;;;49.55;23.75;;;;;;;0.53;89.28;98944.88;124362;1146;22665;-66
2020/12/29 06:14:50;;;;;;;31.50;17.10;;;;;;;0.53;89.76;98939.52;120009;1148;22920;-66
2020/12/29 06:17:18;;;;;;;27.27;16.47;;;;;;;0.51;89.22;98944.27;119944;1148;23068;-65
2020/12/29 06:19:52;;;;;;;28.45;15.90;;;;;;;0.50;89.47;98923.85;123956;1149;23444;-66
2020/12/29 06:22:20;;;;;;;29.13;16.50;;;;;;;0.50;89.21;98942.61;124398;1146;22707;-66
2020/12/29 06:24:47;;;;;;;30.63;16.80;;;;;;;0.51;89.00;98938.08;124146;1147;22677;-66
2020/12/29 06:27:15;;;;;;;38.33;19.23;;;;;;;0.52;89.40;98939.73;124443;1147;24690;-66
2020/12/29 06:29:44;;;;;;;28.65;16.15;;;;;;;0.54;88.91;98943.03;124211;1148;22682;-67
2020/12/29 06:32:13;;;;;;;24.07;15.10;;;;;;;0.55;89.98;98950.86;124344;1148;22665;-67
2020/12/29 06:34:41;;;;;;;24.70;13.20;;;;;;;0.55;90.08;98945.50;124231;1148;22718;-67
2020/12/29 06:37:41;;;;;;;24.20;13.93;;;;;;;0.54;90.07;98938.49;124330;1148;22720;-67
2020/12/29 06:40:09;;;;;;;28.83;15.30;;;;;;;0.54;89.46;98948.39;124204;1148;23499;-66
2020/12/29 06:42:43;;;;;;;25.63;14.17;;;;;;;0.58;90.61;98946.92;124304;1148;22943;-67
2020/12/29 06:45:11;;;;;;;25.33;13.77;;;;;;;0.58;90.24;98939.70;124168;1148;22666;-65
2020/12/29 06:47:40;;;;;;;20.23;12.43;;;;;;;0.61;89.61;98962.59;124065;1148;23551;-69
2020/12/29 06:50:29;;;;;;;21.87;11.60;;;;;;;0.63;90.29;98957.85;124046;1148;22849;-68
2020/12/29 06:53:00;;;;;;;24.33;11.47;;;;;;;0.63;89.48;98957.85;124175;1148;22721;-69
2020/12/29 06:55:39;;;;;;;20.20;11.60;;;;;;;0.65;89.79;98956.62;123985;1148;22665;-68
2020/12/29 06:58:32;;;;;;;17.60;10.60;;;;;;;0.66;89.56;98946.72;124267;1148;22693;-68
2020/12/29 07:01:19;;;;;;;18.20;10.20;;;;;;;0.68;90.17;98956.21;124037;1148;22703;-68
2020/12/29 07:03:46;;;;;;;19.53;11.10;;;;;;;0.67;90.28;98959.92;124194;1148;22712;-68
2020/12/29 07:06:14;;;;;;;18.00;10.10;;;;;;;0.68;89.87;98950.02;124001;1148;22789;-66
2020/12/29 07:08:42;;;;;;;22.35;12.05;;;;;;;0.69;90.03;98952.50;124157;1148;22803;-66
2020/12/29 07:11:19;;;;;;;17.85;10.20;;;;;;;0.72;89.36;98943.22;124023;1148;22689;-67
2020/12/29 07:13:50;;;;;;;16.90;10.25;;;;;;;0.73;89.41;98944.02;124059;1148;22774;-67
2020/12/29 07:16:24;;;;;;;16.67;10.37;;;;;;;0.72;90.00;98939.71;123964;1146;24086;-67
2020/12/29 07:18:52;;;;;;;19.93;11.13;;;;;;;0.67;90.15;98927.75;124084;1148;22780;-67
2020/12/29 07:21:26;;;;;;;18.85;9.50;;;;;;;0.66;89.32;98920.73;124071;1148;22702;-67
2020/12/29 07:23:55;;;;;;;19.87;11.73;;;;;;;0.65;90.31;98928.98;124133;1148;22693;-66
2020/12/29 07:26:39;;;;;;;17.65;11.28;;;;;;;0.65;89.28;98926.30;124084;1148;23588;-66
2020/12/29 07:29:07;;;;;;;17.77;10.57;;;;;;;0.66;89.50;98928.78;124105;1148;23549;-66
2020/12/29 07:31:38;;;;;;;17.55;10.45;;;;;;;0.68;90.28;98933.94;124064;1148;22786;-65
2020/12/29 07:34:11;;;;;;;17.50;9.37;;;;;;;0.71;89.48;98933.52;124107;1149;22719;-66
2020/12/29 07:36:48;;;;;;;16.30;9.60;;;;;;;0.72;89.45;98945.91;124105;1148;22705;-68
2020/12/29 07:39:17;;;;;;;16.60;9.33;;;;;;;0.74;90.16;98941.13;124277;1148;23600;-66
2020/12/29 07:41:44;;;;;;;19.70;11.05;;;;;;;0.75;89.10;98932.05;124103;1148;23513;-66
2020/12/29 07:44:11;;;;;;;18.50;10.45;;;;;;;0.79;90.11;98941.33;124380;1148;22685;-66
2020/12/29 07:46:39;;;;;;;18.93;11.03;;;;;;;0.82;89.28;98946.28;123998;1148;22779;-66
2020/12/29 07:49:06;;;;;;;19.63;10.73;;;;;;;0.83;90.30;98923.80;124230;1148;22685;-66
2020/12/29 07:51:54;;;;;;;21.75;12.45;;;;;;;0.85;90.41;98927.10;124131;1148;22709;-66
2020/12/29 07:54:21;;;;;;;22.22;11.85;;;;;;;0.84;89.70;98904.00;124239;1148;22682;-66
2020/12/29 07:56:49;;;;;;;25.05;12.65;;;;;;;0.85;89.80;98902.97;124172;1148;23470;-66
2020/12/29 07:59:17;;;;;;;22.80;13.30;;;;;;;0.85;90.30;98892.24;124139;1149;22693;-66
2020/12/29 08:02:02;;;;;;;20.15;11.45;;;;;;;0.86;90.08;98903.79;124028;1148;22693;-66
2020/12/29 08:04:31;;;;;;;18.75;10.85;;;;;;;0.86;90.67;98899.25;124311;1149;22737;-66
2020/12/29 08:06:59;;;;;;;17.87;9.67;;;;;;;0.86;89.77;98898.43;120998;1148;22941;-65
2020/12/29 08:09:26;;;;;;;16.80;10.23;;;;;;;0.86;90.47;98898.43;124261;1148;22715;-66
2020/12/29 08:12:01;;;;;;;20.20;11.20;;;;;;;0.82;89.73;98878.42;124152;1149;23402;-66
2020/12/29 08:27:04;;;;;;;21.83;11.73;;;;;;;0.89;90.45;98884.58;120311;1148;22938;-69
2020/12/29 08:29:53;;;;;;;19.10;11.27;;;;;;;0.88;89.48;98878.39;120119;1148;23081;-68
2020/12/29 08:32:45;;;;;;;21.33;10.63;;;;;;;0.88;90.68;98864.98;120077;1148;28205;-68
2020/12/29 08:35:49;;;;;;;19.23;10.53;;;;;;;0.89;89.83;98865.80;120142;1148;22904;-69
2020/12/29 08:38:42;;;;;;;17.90;11.13;;;;;;;0.89;90.63;98863.13;120157;1148;27170;-68
2020/12/29 08:41:34;;;;;;;16.67;9.93;;;;;;;0.91;90.55;98856.52;124235;1145;22698;-69
2020/12/29 08:44:24;;;;;;;16.20;9.33;;;;;;;0.94;89.69;98847.23;124169;1148;23312;-70
2020/12/29 08:47:13;;;;;;;17.27;9.80;;;;;;;0.95;90.70;98854.23;124159;1148;22719;-70
2020/12/29 08:50:24;;;;;;;16.95;8.55;;;;;;;0.97;90.87;98833.40;124036;1149;22747;-70
2020/12/29 08:53:13;;;;;;;17.10;8.75;;;;;;;1.01;90.36;98840.78;124266;1146;22658;-70
2020/12/29 08:56:01;;;;;;;15.40;9.30;;;;;;;1.05;90.39;98828.60;124182;1148;22734;-70
2020/12/29 08:58:50;;;;;;;18.25;9.90;;;;;;;1.08;90.84;98834.58;124291;1148;22653;-71
2020/12/29 09:01:40;;;;;;;17.07;9.50;;;;;;;1.10;89.80;98824.46;124143;1148;22701;-68
2020/12/29 14:35:40;;;;;;;48.67;20.97;;;;;;;3.46;90.51;98783.61;120297;1144;27296;-61
2020/12/29 14:38:29;;;;;;;77.90;25.93;;;;;;;3.48;90.78;98786.07;120437;1144;22983;-61
2020/12/29 14:41:17;;;;;;;54.30;24.07;;;;;;;3.50;91.27;98790.18;120445;1144;23446;-63
2020/12/29 14:44:06;;;;;;;32.07;16.47;;;;;;;3.52;90.91;98781.87;120415;1144;23002;-63
2020/12/29 14:46:54;;;;;;;50.80;23.30;;;;;;;3.52;90.47;98793.47;124856;1143;23784;-64
2020/12/29 14:49:41;;;;;;;157.78;54.27;;;;;;;3.53;90.60;98780.83;124851;1142;22762;-63
2020/12/29 14:52:30;;;;;;;72.80;26.85;;;;;;;3.51;90.55;98791.00;124880;1142;22661;-63
2020/12/29 14:55:18;;;;;;;36.65;17.95;;;;;;;3.51;90.83;98815.24;124953;1143;23920;-64
2020/12/29 14:58:06;;;;;;;61.60;26.05;;;;;;;3.57;91.02;98800.05;124913;1143;22688;-64
2020/12/29 15:00:53;;;;;;;39.90;21.05;;;;;;;3.59;90.62;98804.16;124834;1143;23329;-64
2020/12/29 15:03:41;;;;;;;31.05;18.60;;;;;;;3.62;90.60;98808.23;124921;1143;23362;-64
2020/12/29 15:06:30;;;;;;;32.58;18.40;;;;;;;3.64;90.76;98812.34;124658;1143;22720;-64
2020/12/29 15:09:18;;;;;;;59.65;25.95;;;;;;;3.66;90.27;98818.33;124749;1142;22792;-64
2020/12/29 15:12:06;;;;;;;53.20;22.40;;;;;;;3.69;90.51;98811.66;124868;1143;23452;-64
2020/12/29 15:14:54;;;;;;;41.25;21.85;;;;;;;3.69;90.12;98831.34;124923;1144;22690;-64
2020/12/29 15:17:42;;;;;;;40.38;20.50;;;;;;;3.70;90.63;98824.08;124716;1143;22668;-64
2020/12/29 15:20:30;;;;;;;38.25;21.57;;;;;;;3.70;90.40;98819.52;124888;1142;23488;-65
2020/12/29 15:23:18;;;;;;;38.80;21.10;;;;;;;3.69;90.17;98817.88;124891;1142;22654;-64
2020/12/29 15:26:06;;;;;;;40.65;22.07;;;;;;;3.69;90.52;98835.91;124789;1144;22787;-64
2020/12/29 15:28:54;;;;;;;35.20;21.05;;;;;;;3.68;90.55;98832.39;124845;1142;22689;-64
2020/12/29 15:31:42;;;;;;;;;;;;;;;3.69;90.60;98831.34;124924;1143;22767;-64
2020/12/29 15:34:30;;;;;;;37.45;17.75;;;;;;;3.68;90.88;98845.04;124807;1142;21518;-64
2020/12/29 15:37:18;;;;;;;36.55;19.20;;;;;;;3.69;90.79;98839.42;124833;1142;23639;-64
2020/12/29 15:40:06;;;;;;;62.98;26.55;;;;;;;3.71;90.59;98848.10;124942;1142;22687;-63
2020/12/29 15:42:53;;;;;;;35.00;19.00;;;;;;;3.74;90.73;98858.42;124950;1143;22683;-64
2020/12/29 15:45:41;;;;;;;30.43;16.57;;;;;;;3.73;90.35;98856.78;124827;1143;22684;-62
2020/12/29 15:48:29;;;;;;;80.28;31.70;;;;;;;3.76;90.59;98848.21;124955;1142;22684;-62
2020/12/29 15:51:21;;;;;;;86.25;28.92;;;;;;;3.76;90.48;98858.16;124930;1143;22784;-62
2020/12/29 15:54:09;;;;;;;43.50;25.30;;;;;;;3.78;90.62;98864.15;124932;1142;22668;-62
2020/12/29 15:56:57;;;;;;;55.75;26.15;;;;;;;3.83;90.75;98872.37;124735;1142;22721;-66
2020/12/29 15:59:49;;;;;;;46.73;22.77;;;;;;;3.85;90.31;98871.09;124756;1143;23419;-64
2020/12/29 16:02:40;;;;;;;39.07;21.03;;;;;;;3.87;90.66;98890.55;124823;1143;22841;-64
2020/12/29 16:05:28;;;;;;;35.93;22.00;;;;;;;3.83;90.96;98885.84;124755;1143;23533;-63
2020/12/29 16:08:15;;;;;;;46.55;22.30;;;;;;;3.95;90.68;98894.78;124979;1142;22676;-64
2020/12/29 16:11:04;;;;;;;43.02;20.92;;;;;;;4.00;90.39;98904.88;124871;1142;22680;-63
2020/12/29 16:13:51;;;;;;;41.50;22.67;;;;;;;4.03;90.00;98912.52;124977;1143;22652;-64
2020/12/29 16:16:39;;;;;;;33.42;19.35;;;;;;;4.06;90.64;98906.63;122133;1144;25964;-62
2020/12/29 16:19:27;;;;;;;30.35;18.35;;;;;;;4.07;90.90;98908.28;120309;1144;23129;-62
2020/12/29 16:22:17;;;;;;;31.40;18.70;;;;;;;4.06;90.72;98895.85;120516;1144;23014;-63
2020/12/29 16:25:05;;;;;;;29.33;16.67;;;;;;;4.07;90.75;98908.28;124824;1143;22799;-63
2020/12/29 16:27:52;;;;;;;;;;;;;;;4.09;90.53;98914.27;125019;1143;22667;-64
2020/12/29 16:30:41;;;;;;;34.20;18.30;;;;;;;4.08;90.74;98908.05;124731;1144;21397;-63
2020/12/29 16:33:29;;;;;;;58.08;27.50;;;;;;;4.12;90.91;98924.59;124943;1142;22645;-63
2020/12/29 16:36:17;;;;;;;52.70;24.25;;;;;;;4.15;90.48;98922.27;124779;1143;22720;-63
2020/12/29 16:39:06;;;;;;;76.53;28.32;;;;;;;4.18;90.85;98926.37;124715;1143;23388;-63
2020/12/29 16:41:55;;;;;;;47.45;22.70;;;;;;;4.20;90.38;98919.67;124945;1143;23469;-63
2020/12/29 16:45:02;;;;;;;35.70;19.10;;;;;;;4.22;90.50;98920.27;124798;1143;23694;-63
2020/12/29 16:47:50;;;;;;;41.67;21.90;;;;;;;4.26;90.82;98918.77;124876;1142;24281;-63
2020/12/29 16:50:38;;;;;;;68.97;25.10;;;;;;;4.29;90.34;98939.05;124884;1142;22717;-63
2020/12/29 16:53:25;;;;;;;40.05;20.25;;;;;;;4.31;90.75;98945.05;124886;1142;22786;-63
2020/12/29 16:56:14;;;;;;;32.30;17.73;;;;;;;4.33;90.63;98942.91;124897;1142;22712;-62
2020/12/29 16:59:02;;;;;;;37.50;20.65;;;;;;;4.35;90.29;98943.50;124907;1141;22679;-62
2020/12/29 17:01:50;;;;;;;37.98;21.42;;;;;;;4.38;90.38;98953.84;124946;1143;22770;-62
2020/12/29 17:04:38;;;;;;;80.30;34.38;;;;;;;4.42;90.76;98954.20;124920;1143;22723;-63
2020/12/29 17:07:25;;;;;;;47.40;21.60;;;;;;;4.47;90.72;98965.13;124821;1143;22697;-63
2020/12/29 17:10:13;;;;;;;101.45;35.65;;;;;;;4.51;90.10;98969.80;124967;1143;22671;-62
2020/12/29 17:13:01;;;;;;;84.50;32.00;;;;;;;4.56;90.66;98982.61;124876;1142;22747;-62
2020/12/29 17:15:49;;;;;;;46.50;22.65;;;;;;;4.56;90.48;98979.91;124772;1142;22747;-62
2020/12/29 17:18:37;;;;;;;110.92;40.95;;;;;;;4.58;90.37;98984.02;124930;1142;22818;-63
2020/12/29 17:21:25;;;;;;;104.75;43.90;;;;;;;4.61;90.43;98972.77;124817;1143;22699;-63
2020/12/29 17:24:13;;;;;;;95.30;34.40;;;;;;;4.62;90.35;98982.48;124802;1142;22752;-62
2020/12/29 17:27:17;;;;;;;46.87;23.70;;;;;;;4.63;90.19;98994.92;124937;1143;22705;-63
2020/12/29 17:30:05;;;;;;;40.10;22.52;;;;;;;4.64;90.33;98998.44;124714;1144;22768;-63
2020/12/29 17:32:53;;;;;;;84.07;37.33;;;;;;;4.65;89.98;99004.66;124845;1142;22703;-63
2020/12/29 17:35:42;;;;;;;87.30;34.50;;;;;;;4.66;90.03;99000.91;124842;1143;26876;-63
2020/12/29 17:38:30;;;;;;;76.43;33.87;;;;;;;4.66;89.95;99014.40;124966;1142;23435;-63
2020/12/29 17:41:19;;;;;;;50.50;25.15;;;;;;;4.66;90.13;99017.09;124840;1143;22699;-63